Time;durP1;ratioP1;P1;durP2;ratioP2;P2;SDS_P1;SDS_P2;PMS_P1;PMS_P2;Temp;Humidity;BMP_temperature;BMP_pressure;BME280_temperature;BME280_humidity;BME280_pressure;Samples;Min_cycle;Max_cycle;Signal;HPM_P1;HPM_P2
2021/12/28 00:00:01;;;;;;;7.37;2.13;;;5.60;99.90;;;;;;5054857;28;20188;-47
2021/12/28 00:02:27;;;;;;;6.10;2.60;;;5.60;99.90;;;;;;5054864;28;20604;-45
2021/12/28 00:04:53;;;;;;;10.50;3.50;;;5.70;99.90;;;;;;5054574;28;20266;-47
2021/12/28 00:07:18;;;;;;;13.60;3.77;;;5.80;99.90;;;;;;5054592;28;20226;-48
2021/12/28 00:09:44;;;;;;;11.47;3.00;;;5.90;99.90;;;;;;5053801;28;20252;-48
2021/12/28 00:12:10;;;;;;;5.60;3.10;;;5.90;99.90;;;;;;5053069;28;20202;-47
2021/12/28 00:14:38;;;;;;;11.83;3.00;;;6.00;99.90;;;;;;5054135;28;20793;-46
2021/12/28 00:19:48;;;;;;;9.83;3.03;;;6.00;99.90;;;;;;5054656;28;20307;-47
2021/12/28 00:22:14;;;;;;;13.93;3.53;;;6.10;99.90;;;;;;5052855;28;20224;-47
2021/12/28 00:24:40;;;;;;;16.60;3.27;;;6.10;99.90;;;;;;5056249;28;20200;-45
2021/12/28 00:27:06;;;;;;;13.93;3.20;;;6.20;99.90;;;;;;5056525;28;20191;-48
2021/12/28 00:29:32;;;;;;;15.50;3.20;;;6.20;99.90;;;;;;5057668;28;20203;-47
2021/12/28 00:31:57;;;;;;;14.73;3.70;;;6.20;99.90;;;;;;5056623;28;20208;-46
2021/12/28 00:34:23;;;;;;;9.37;3.00;;;6.30;99.90;;;;;;5057338;28;20610;-47
2021/12/28 00:36:49;;;;;;;10.63;3.50;;;6.30;99.90;;;;;;5056300;28;20239;-47
2021/12/28 00:39:14;;;;;;;9.63;3.07;;;6.40;99.90;;;;;;5057772;28;20611;-46
2021/12/28 00:41:40;;;;;;;9.63;3.30;;;6.40;99.90;;;;;;5055980;28;20201;-48
2021/12/28 00:44:06;;;;;;;11.30;3.13;;;6.40;99.90;;;;;;5056015;28;20186;-47
2021/12/28 00:46:32;;;;;;;9.17;3.37;;;6.40;99.90;;;;;;5057511;28;20673;-46
2021/12/28 00:48:58;;;;;;;9.63;3.60;;;6.40;99.90;;;;;;5055854;28;20188;-46
2021/12/28 00:51:23;;;;;;;10.37;3.70;;;6.40;99.90;;;;;;5055898;28;20188;-46
2021/12/28 00:53:49;;;;;;;18.17;4.20;;;6.40;99.90;;;;;;5055661;28;20187;-46
2021/12/28 00:56:15;;;;;;;14.03;3.80;;;6.40;99.90;;;;;;5055125;28;20219;-47
2021/12/28 00:58:40;;;;;;;13.73;3.80;;;6.40;99.90;;;;;;5055795;28;20186;-48
2021/12/28 01:01:06;;;;;;;16.70;3.77;;;6.30;99.90;;;;;;5056870;28;20256;-46
2021/12/28 01:03:37;;;;;;;16.27;3.80;;;6.20;99.90;;;;;;5055849;28;20565;-47
2021/12/28 01:06:04;;;;;;;11.87;3.13;;;6.20;99.90;;;;;;5055613;28;20266;-46
2021/12/28 01:08:30;;;;;;;12.27;3.53;;;6.20;99.90;;;;;;5057032;28;20174;-46
2021/12/28 01:10:56;;;;;;;7.77;2.80;;;6.20;99.90;;;;;;5057061;28;20190;-47
2021/12/28 01:13:22;;;;;;;7.17;2.80;;;6.20;99.90;;;;;;5055457;28;20208;-46
2021/12/28 01:15:49;;;;;;;9.80;2.80;;;6.20;99.90;;;;;;5056805;28;20239;-47
2021/12/28 01:18:15;;;;;;;23.63;3.07;;;6.30;99.90;;;;;;5055041;28;20763;-47
2021/12/28 01:20:42;;;;;;;9.30;3.07;;;6.30;99.90;;;;;;5055290;28;20198;-46
2021/12/28 01:23:08;;;;;;;6.77;2.43;;;6.30;99.90;;;;;;5056785;28;20195;-47
2021/12/28 01:25:35;;;;;;;10.10;2.37;;;6.30;99.90;;;;;;5055319;28;20606;-45
2021/12/28 01:28:02;;;;;;;16.60;2.63;;;6.40;99.90;;;;;;5055027;28;20639;-46
2021/12/28 01:30:28;;;;;;;13.73;2.90;;;6.40;99.90;;;;;;5056699;28;20185;-45
2021/12/28 01:32:57;;;;;;;17.20;2.87;;;6.50;99.90;;;;;;5056476;28;20257;-47
2021/12/28 01:35:22;;;;;;;9.87;2.40;;;6.50;99.90;;;;;;5055643;28;20200;-46
2021/12/28 01:37:48;;;;;;;13.70;2.57;;;6.50;99.90;;;;;;5056348;28;20191;-47
2021/12/28 01:40:19;;;;;;;14.67;2.43;;;6.50;99.90;;;;;;5056143;28;20188;-47
2021/12/28 01:43:13;;;;;;;15.90;3.50;;;6.50;99.90;;;;;;5054484;28;20283;-46
2021/12/28 01:45:48;;;;;;;24.07;3.33;;;6.50;99.90;;;;;;5045996;28;20232;-48
2021/12/28 01:48:18;;;;;;;18.47;3.07;;;6.50;99.90;;;;;;5055897;28;20177;-47
2021/12/28 01:50:44;;;;;;;20.33;2.87;;;6.40;99.90;;;;;;5055446;28;20180;-47
2021/12/28 01:53:11;;;;;;;22.43;3.07;;;6.40;99.90;;;;;;5055138;28;20668;-48
2021/12/28 01:55:39;;;;;;;17.80;3.07;;;6.50;99.90;;;;;;5055257;28;20207;-47
2021/12/28 01:58:06;;;;;;;24.00;3.10;;;6.40;99.90;;;;;;5055120;28;20308;-46
2021/12/28 02:00:32;;;;;;;20.57;3.00;;;6.40;99.90;;;;;;5053608;28;20183;-47
2021/12/28 02:02:59;;;;;;;16.50;3.53;;;6.40;99.90;;;;;;5055270;28;20202;-48
2021/12/28 02:05:25;;;;;;;22.00;3.37;;;6.50;99.90;;;;;;5055580;28;20182;-48
2021/12/28 02:07:51;;;;;;;20.53;3.50;;;6.50;99.90;;;;;;5055924;28;20183;-47
2021/12/28 02:10:17;;;;;;;24.80;3.37;;;6.40;99.90;;;;;;5055450;28;20181;-47
2021/12/28 02:12:43;;;;;;;20.10;3.47;;;6.50;99.90;;;;;;5054024;28;20200;-48
2021/12/28 02:15:13;;;;;;;21.67;3.30;;;6.60;99.90;;;;;;5054347;28;20581;-45
2021/12/28 02:17:39;;;;;;;22.57;3.50;;;6.60;99.90;;;;;;5053952;28;20550;-47
2021/12/28 02:20:17;;;;;;;15.17;3.70;;;6.60;99.90;;;;;;5053941;28;20638;-47
2021/12/28 02:22:43;;;;;;;16.53;3.30;;;6.60;99.90;;;;;;5052607;28;20242;-46
2021/12/28 02:25:10;;;;;;;24.87;3.20;;;6.60;99.90;;;;;;5053931;28;20184;-46
2021/12/28 02:27:36;;;;;;;24.93;3.33;;;6.70;99.90;;;;;;5052225;28;20181;-46
2021/12/28 02:30:06;;;;;;;19.30;3.37;;;6.70;99.90;;;;;;5053750;28;20556;-46
2021/12/28 02:32:32;;;;;;;18.20;3.57;;;6.70;99.90;;;;;;5052107;28;20200;-47
2021/12/28 02:34:58;;;;;;;21.70;3.40;;;6.80;99.90;;;;;;5052426;28;20180;-47
2021/12/28 02:37:24;;;;;;;30.70;3.67;;;6.80;99.90;;;;;;5053701;28;20279;-47
2021/12/28 02:39:50;;;;;;;22.03;3.37;;;6.90;99.90;;;;;;5035739;28;20203;-47
2021/12/28 02:42:21;;;;;;;25.00;3.40;;;7.00;99.90;;;;;;5052573;28;20229;-46
2021/12/28 02:45:00;;;;;;;15.87;3.90;;;7.00;99.90;;;;;;5052440;28;20228;-46
2021/12/28 02:47:26;;;;;;;27.87;2.93;;;7.00;99.90;;;;;;5053254;28;20497;-46
2021/12/28 02:49:52;;;;;;;23.40;3.37;;;7.00;99.90;;;;;;5052890;28;20237;-46
2021/12/28 02:52:17;;;;;;;22.47;3.90;;;7.00;99.90;;;;;;5053001;28;20205;-46
2021/12/28 02:54:43;;;;;;;28.20;3.80;;;7.10;99.90;;;;;;5053613;28;20185;-48
2021/12/28 02:57:09;;;;;;;26.50;4.13;;;7.10;99.90;;;;;;5036743;28;20235;-46
2021/12/28 02:59:44;;;;;;;25.47;3.47;;;7.10;99.90;;;;;;5054415;28;20224;-47
2021/12/28 03:02:10;;;;;;;18.60;2.73;;;7.10;99.90;;;;;;5054627;28;20201;-46
2021/12/28 03:04:36;;;;;;;24.67;3.20;;;7.10;99.90;;;;;;5054576;28;20578;-46
2021/12/28 03:07:02;;;;;;;17.07;3.03;;;7.10;99.90;;;;;;5054751;28;20173;-47
2021/12/28 03:09:27;;;;;;;21.57;2.90;;;7.10;99.90;;;;;;5053395;28;20181;-46
2021/12/28 03:11:53;;;;;;;15.93;2.53;;;7.20;99.90;;;;;;5053438;28;20340;-47
2021/12/28 03:14:18;;;;;;;21.77;3.43;;;7.20;99.90;;;;;;5053303;28;20189;-47
2021/12/28 03:16:44;;;;;;;20.17;2.97;;;7.20;99.90;;;;;;5053692;28;20203;-47
2021/12/28 03:19:10;;;;;;;21.17;3.70;;;7.10;99.90;;;;;;5053471;28;20192;-45
2021/12/28 03:21:38;;;;;;;21.93;3.00;;;7.10;99.90;;;;;;5054741;28;20175;-46
2021/12/28 03:24:05;;;;;;;19.07;3.17;;;7.20;99.90;;;;;;5054134;28;20179;-47
2021/12/28 03:26:30;;;;;;;18.77;3.40;;;7.10;99.90;;;;;;5054920;28;20205;-48
2021/12/28 03:28:56;;;;;;;27.23;3.40;;;7.10;99.90;;;;;;5053221;28;20191;-47
2021/12/28 03:31:22;;;;;;;22.70;3.53;;;7.10;99.90;;;;;;5054730;28;20643;-46
2021/12/28 03:33:51;;;;;;;19.23;3.70;;;7.10;99.90;;;;;;5054702;28;20179;-47
2021/12/28 03:36:18;;;;;;;22.33;2.97;;;7.10;99.90;;;;;;5053624;28;20272;-47
2021/12/28 03:38:45;;;;;;;17.33;2.80;;;7.10;99.90;;;;;;5054689;28;20178;-45
2021/12/28 03:41:12;;;;;;;21.53;4.03;;;7.10;99.90;;;;;;5054480;28;20188;-46
2021/12/28 03:43:41;;;;;;;26.60;4.30;;;7.10;99.90;;;;;;5054705;28;20197;-47
2021/12/28 03:46:08;;;;;;;14.73;3.20;;;7.10;99.90;;;;;;5054691;28;20619;-45
2021/12/28 03:48:35;;;;;;;20.70;3.23;;;7.10;99.90;;;;;;5055028;28;20187;-48
2021/12/28 03:51:01;;;;;;;21.50;3.67;;;7.10;99.90;;;;;;5054629;28;20187;-46
2021/12/28 03:53:27;;;;;;;14.50;2.50;;;7.10;99.90;;;;;;5053187;28;20222;-47
2021/12/28 03:55:53;;;;;;;22.67;3.27;;;7.10;99.90;;;;;;5052928;28;20619;-46
2021/12/28 03:58:19;;;;;;;20.53;3.93;;;7.10;99.90;;;;;;5054254;28;20178;-48
2021/12/28 04:00:47;;;;;;;15.40;3.23;;;7.20;99.90;;;;;;5057590;28;20208;-47
2021/12/28 04:03:14;;;;;;;21.43;3.33;;;7.20;99.90;;;;;;5055947;28;20200;-47
2021/12/28 04:05:42;;;;;;;12.73;2.70;;;7.20;99.90;;;;;;5056377;28;20188;-47
2021/12/28 04:08:08;;;;;;;21.53;3.93;;;7.20;99.90;;;;;;5057647;28;20186;-47
2021/12/28 04:10:49;;;;;;;15.60;2.57;;;7.30;99.90;;;;;;5051775;28;20182;-47
2021/12/28 04:13:16;;;;;;;15.57;2.70;;;7.30;99.90;;;;;;5077685;28;20605;-47
2021/12/28 04:15:42;;;;;;;16.07;3.00;;;7.40;99.90;;;;;;5059188;28;20209;-46
2021/12/28 04:18:07;;;;;;;17.10;3.87;;;7.40;99.90;;;;;;5059296;28;20268;-47
2021/12/28 04:20:33;;;;;;;13.97;2.90;;;7.40;99.90;;;;;;5077301;28;20636;-47
2021/12/28 04:22:59;;;;;;;15.53;3.37;;;7.40;99.90;;;;;;5059611;28;20202;-47
2021/12/28 04:25:25;;;;;;;16.43;2.87;;;7.40;99.90;;;;;;5077507;28;20173;-48
2021/12/28 04:27:50;;;;;;;19.27;3.67;;;7.50;99.90;;;;;;5059884;28;20193;-47
2021/12/28 04:30:16;;;;;;;17.33;2.83;;;7.50;99.90;;;;;;5059424;28;20244;-47
2021/12/28 04:32:43;;;;;;;20.40;3.10;;;7.50;99.90;;;;;;5059631;28;20204;-47
2021/12/28 04:35:10;;;;;;;18.43;2.83;;;7.50;99.90;;;;;;5059802;28;20185;-48
2021/12/28 04:37:36;;;;;;;14.23;2.93;;;7.50;99.90;;;;;;5077571;28;20231;-46
2021/12/28 04:40:02;;;;;;;12.20;2.40;;;7.50;99.90;;;;;;5059839;28;20270;-46
2021/12/28 04:42:29;;;;;;;13.17;2.20;;;7.60;99.90;;;;;;5077858;28;20197;-47
2021/12/28 04:44:55;;;;;;;16.07;3.23;;;7.60;99.90;;;;;;5059726;28;20214;-47
2021/12/28 04:47:21;;;;;;;13.03;3.37;;;7.60;99.90;;;;;;5077753;28;20536;-48
2021/12/28 04:49:47;;;;;;;14.07;3.23;;;7.60;99.90;;;;;;5076954;28;20177;-46
2021/12/28 04:52:13;;;;;;;13.90;3.10;;;7.70;99.90;;;;;;5058892;28;20206;-45
2021/12/28 04:54:40;;;;;;;14.20;2.40;;;7.70;99.90;;;;;;5077269;28;20187;-47
2021/12/28 04:57:06;;;;;;;10.27;2.10;;;7.70;99.90;;;;;;5059023;28;20206;-47
2021/12/28 04:59:32;;;;;;;12.83;2.63;;;7.70;99.90;;;;;;5077043;28;20175;-47
2021/12/28 05:01:58;;;;;;;17.50;2.93;;;7.80;99.90;;;;;;5058655;28;20209;-49
2021/12/28 05:04:23;;;;;;;10.80;2.10;;;7.80;99.90;;;;;;5076806;28;20175;-46
2021/12/28 05:06:52;;;;;;;12.40;2.33;;;7.80;99.90;;;;;;5058713;28;20624;-47
2021/12/28 05:09:18;;;;;;;17.10;2.90;;;7.90;99.90;;;;;;5058390;28;20172;-48
2021/12/28 05:11:45;;;;;;;10.43;2.17;;;7.90;99.90;;;;;;5058711;28;20206;-47
2021/12/28 05:14:11;;;;;;;10.93;2.17;;;7.80;99.90;;;;;;5058579;28;20648;-47
2021/12/28 05:16:37;;;;;;;14.03;2.43;;;7.90;99.90;;;;;;5058574;28;20230;-47
2021/12/28 05:19:06;;;;;;;14.90;2.43;;;7.90;99.90;;;;;;5075982;28;20171;-47
2021/12/28 05:21:33;;;;;;;12.33;2.43;;;7.90;99.90;;;;;;5041635;28;20179;-43
2021/12/28 05:23:59;;;;;;;13.17;2.30;;;7.90;99.90;;;;;;5057826;28;20190;-42
2021/12/28 05:26:25;;;;;;;12.27;2.80;;;7.90;99.90;;;;;;5057971;28;20182;-45
2021/12/28 05:28:52;;;;;;;9.87;1.70;;;7.90;99.90;;;;;;5056761;28;20276;-44
2021/12/28 05:31:18;;;;;;;16.97;2.00;;;7.90;99.90;;;;;;5074777;28;20182;-44
2021/12/28 05:33:44;;;;;;;10.37;2.00;;;8.00;99.90;;;;;;5056750;28;20207;-44
2021/12/28 05:36:10;;;;;;;14.03;1.87;;;7.90;99.90;;;;;;5074842;28;20210;-43
2021/12/28 05:38:37;;;;;;;12.93;2.03;;;8.00;99.90;;;;;;5056673;28;20187;-43
2021/12/28 05:41:04;;;;;;;8.57;1.77;;;8.00;99.90;;;;;;5056764;28;20182;-44
2021/12/28 05:43:30;;;;;;;8.37;2.07;;;8.00;99.90;;;;;;5056558;28;20231;-42
2021/12/28 05:45:55;;;;;;;8.97;1.90;;;8.00;99.90;;;;;;5040111;28;20324;-41
2021/12/28 05:48:21;;;;;;;4.63;1.50;;;8.00;99.90;;;;;;5074411;28;20261;-42
2021/12/28 05:50:47;;;;;;;7.83;1.90;;;8.00;99.90;;;;;;5074344;28;20592;-43
2021/12/28 05:53:13;;;;;;;9.87;1.80;;;8.00;99.90;;;;;;5074266;28;20198;-43
2021/12/28 05:55:39;;;;;;;15.40;2.47;;;8.00;99.90;;;;;;5056260;28;20212;-43
2021/12/28 05:58:04;;;;;;;13.57;1.70;;;8.00;99.90;;;;;;5074456;28;20182;-44
2021/12/28 06:00:30;;;;;;;13.10;1.93;;;8.00;99.90;;;;;;5056316;28;20196;-45
2021/12/28 06:02:56;;;;;;;8.10;1.90;;;8.00;99.90;;;;;;5074051;28;20209;-44
2021/12/28 06:05:24;;;;;;;10.97;2.10;;;8.00;99.90;;;;;;5039562;28;20183;-42
2021/12/28 06:07:50;;;;;;;7.70;1.77;;;8.00;99.90;;;;;;5039591;28;20642;-43
2021/12/28 06:10:16;;;;;;;9.10;2.00;;;8.00;99.90;;;;;;5073989;28;20179;-43
2021/12/28 06:12:43;;;;;;;8.10;1.57;;;8.00;99.90;;;;;;5073828;28;20278;-44
2021/12/28 06:15:10;;;;;;;17.67;1.83;;;8.00;99.90;;;;;;5056809;28;20190;-43
2021/12/28 06:17:35;;;;;;;11.17;2.27;;;8.00;99.90;;;;;;5055882;28;20604;-45
2021/12/28 06:20:01;;;;;;;9.60;1.73;;;8.00;99.90;;;;;;5055838;28;20175;-44
2021/12/28 06:22:27;;;;;;;13.03;1.77;;;8.00;99.90;;;;;;5055796;28;20234;-44
2021/12/28 06:24:53;;;;;;;10.67;2.10;;;8.00;99.90;;;;;;5073736;28;20179;-44
2021/12/28 06:27:19;;;;;;;9.03;1.50;;;8.10;99.90;;;;;;5073602;28;20257;-44
2021/12/28 06:29:45;;;;;;;6.20;1.50;;;8.00;99.90;;;;;;5055821;28;20187;-46
2021/12/28 06:32:11;;;;;;;8.33;1.53;;;8.00;99.90;;;;;;5073515;28;20254;-46
2021/12/28 06:34:37;;;;;;;11.53;1.70;;;8.00;99.90;;;;;;5055648;28;20693;-44
2021/12/28 06:37:03;;;;;;;13.83;1.73;;;8.00;99.90;;;;;;5039095;28;20214;-44
2021/12/28 06:39:29;;;;;;;11.63;1.53;;;8.00;99.90;;;;;;5055595;28;20186;-44
2021/12/28 06:41:55;;;;;;;9.90;1.40;;;8.00;99.90;;;;;;5073475;28;20188;-43
2021/12/28 06:44:21;;;;;;;8.37;1.37;;;7.90;99.90;;;;;;5056393;28;20578;-44
2021/12/28 06:46:47;;;;;;;14.30;1.97;;;7.90;99.90;;;;;;5055771;28;20202;-43
2021/12/28 06:49:13;;;;;;;11.27;1.83;;;7.90;99.90;;;;;;5073949;28;20221;-45
2021/12/28 06:51:39;;;;;;;8.93;1.43;;;7.90;99.90;;;;;;5073476;28;20839;-45
2021/12/28 06:54:05;;;;;;;6.50;1.77;;;7.90;99.90;;;;;;5073646;28;20182;-44
2021/12/28 06:56:31;;;;;;;4.10;1.40;;;7.90;99.90;;;;;;5073502;28;20217;-45
2021/12/28 06:58:57;;;;;;;6.73;1.60;;;7.90;99.90;;;;;;5073534;28;20251;-44
2021/12/28 07:01:23;;;;;;;13.23;1.50;;;7.90;99.90;;;;;;5055187;28;20228;-46
2021/12/28 07:03:50;;;;;;;11.53;1.73;;;7.90;99.90;;;;;;5055265;28;20175;-45
2021/12/28 07:06:16;;;;;;;5.93;1.20;;;7.90;99.90;;;;;;5073446;28;20255;-45
2021/12/28 07:08:42;;;;;;;16.70;2.47;;;7.80;99.90;;;;;;5073146;28;20175;-45
2021/12/28 07:11:07;;;;;;;6.90;1.70;;;7.80;99.90;;;;;;5073165;28;20185;-43
2021/12/28 07:13:33;;;;;;;10.73;1.83;;;7.80;99.90;;;;;;5055007;28;20608;-45
2021/12/28 07:15:59;;;;;;;7.27;1.17;;;7.80;99.90;;;;;;5073012;28;20261;-44
2021/12/28 07:18:25;;;;;;;12.83;1.73;;;7.80;99.90;;;;;;5073447;28;20223;-43
2021/12/28 07:20:51;;;;;;;7.53;1.50;;;7.70;99.90;;;;;;5055066;28;20266;-44
2021/12/28 07:23:16;;;;;;;10.23;1.70;;;7.70;99.90;;;;;;5055042;28;20207;-44
2021/12/28 07:25:42;;;;;;;8.20;1.60;;;7.70;99.90;;;;;;5055043;28;20264;-44
2021/12/28 07:28:09;;;;;;;8.00;2.03;;;7.70;99.90;;;;;;5038560;28;20202;-44
2021/12/28 07:30:35;;;;;;;8.67;1.73;;;7.70;99.90;;;;;;5055060;28;20271;-45
2021/12/28 07:33:01;;;;;;;7.87;1.50;;;7.70;99.90;;;;;;5056325;28;20199;-44
2021/12/28 07:35:26;;;;;;;10.70;1.83;;;7.70;99.90;;;;;;5076961;28;20176;-45
2021/12/28 07:37:53;;;;;;;3.87;1.60;;;7.70;99.90;;;;;;5077675;28;20253;-44
2021/12/28 07:40:21;;;;;;;7.70;1.70;;;7.70;99.90;;;;;;5059455;28;20187;-44
2021/12/28 07:42:46;;;;;;;9.03;2.30;;;7.70;99.90;;;;;;5077619;28;20257;-45
2021/12/28 07:45:14;;;;;;;12.53;4.23;;;7.70;99.90;;;;;;5059364;28;20275;-44
2021/12/28 07:47:41;;;;;;;14.93;6.87;;;7.70;99.90;;;;;;5058976;28;20186;-44
2021/12/28 07:50:10;;;;;;;14.07;2.80;;;7.70;99.90;;;;;;5076784;28;20229;-43
2021/12/28 07:52:36;;;;;;;8.93;2.93;;;7.70;99.90;;;;;;5076599;28;20278;-44
2021/12/28 07:55:04;;;;;;;8.73;3.10;;;7.70;99.90;;;;;;5058567;28;20179;-44
2021/12/28 07:57:31;;;;;;;12.90;3.47;;;7.70;99.90;;;;;;5058418;28;20305;-44
2021/12/28 07:59:57;;;;;;;12.80;4.50;;;7.70;99.90;;;;;;5076487;28;20261;-44
2021/12/28 08:02:23;;;;;;;16.57;5.70;;;7.70;99.90;;;;;;5058740;28;20199;-43
2021/12/28 08:04:48;;;;;;;17.00;6.97;;;7.80;99.90;;;;;;5058530;28;20236;-43
2021/12/28 08:07:14;;;;;;;20.77;7.10;;;7.80;99.90;;;;;;5058380;28;20195;-45
2021/12/28 08:09:40;;;;;;;20.07;6.53;;;7.80;99.90;;;;;;5076348;28;20265;-44
2021/12/28 08:12:06;;;;;;;20.00;6.97;;;7.70;99.90;;;;;;5041637;28;20722;-43
2021/12/28 08:14:32;;;;;;;16.97;6.50;;;7.70;99.90;;;;;;5076546;28;20168;-45
2021/12/28 08:16:57;;;;;;;14.53;4.30;;;7.70;99.90;;;;;;5058232;28;20232;-42
2021/12/28 08:19:23;;;;;;;10.67;3.07;;;7.70;99.90;;;;;;5076205;28;20692;-44
2021/12/28 08:21:49;;;;;;;9.57;3.17;;;7.70;99.90;;;;;;5058080;28;20194;-42
2021/12/28 08:24:15;;;;;;;9.53;2.77;;;7.70;99.90;;;;;;5058154;28;20637;-43
2021/12/28 08:26:41;;;;;;;10.20;2.40;;;7.60;99.90;;;;;;5058109;28;20207;-44
2021/12/28 08:29:07;;;;;;;9.07;2.33;;;7.70;99.90;;;;;;5075979;28;20206;-44
2021/12/28 08:31:34;;;;;;;7.73;2.20;;;7.60;99.90;;;;;;5057942;28;20193;-43
2021/12/28 08:34:00;;;;;;;9.73;2.53;;;7.70;99.90;;;;;;5076049;28;20181;-43
2021/12/28 08:36:25;;;;;;;10.80;2.37;;;7.70;99.90;;;;;;5075999;28;20697;-44
2021/12/28 08:38:51;;;;;;;8.07;2.30;;;7.70;99.90;;;;;;5057805;28;20681;-46
2021/12/28 08:41:17;;;;;;;9.10;2.50;;;7.70;99.90;;;;;;5057725;28;20186;-43
2021/12/28 08:43:45;;;;;;;7.30;2.10;;;7.70;99.90;;;;;;5040505;28;20199;-43
2021/12/28 08:46:11;;;;;;;7.33;3.00;;;7.70;99.90;;;;;;5057252;28;20187;-44
2021/12/28 08:48:37;;;;;;;3.97;2.07;;;7.70;99.90;;;;;;5075742;28;20248;-43
2021/12/28 08:51:03;;;;;;;4.87;2.30;;;7.80;99.90;;;;;;5075800;28;20185;-45
2021/12/28 08:53:29;;;;;;;2.97;2.30;;;7.80;99.90;;;;;;5075772;28;20194;-42
2021/12/28 08:55:54;;;;;;;7.70;2.10;;;7.90;99.90;;;;;;5057512;28;20694;-43
2021/12/28 08:58:21;;;;;;;4.10;2.43;;;7.90;99.90;;;;;;5058070;28;20258;-43
2021/12/28 09:00:46;;;;;;;6.47;2.73;;;8.00;99.90;;;;;;5057682;28;20179;-45
2021/12/28 09:03:12;;;;;;;8.03;2.53;;;8.00;99.90;;;;;;5057994;28;20237;-44
2021/12/28 09:05:38;;;;;;;4.23;2.00;;;8.00;99.90;;;;;;5075622;28;20227;-45
2021/12/28 09:08:08;;;;;;;6.03;2.00;;;8.10;99.90;;;;;;5057247;28;20175;-44
2021/12/28 09:10:35;;;;;;;2.60;1.53;;;8.10;99.90;;;;;;5057392;28;20624;-43
2021/12/28 09:13:01;;;;;;;3.27;1.43;;;8.20;99.90;;;;;;5057404;28;20194;-45
2021/12/28 09:15:26;;;;;;;3.10;1.20;;;8.20;99.90;;;;;;5057801;28;20270;-45
2021/12/28 09:17:52;;;;;;;2.10;0.90;;;8.30;99.90;;;;;;5075619;28;20365;-42
2021/12/28 09:20:21;;;;;;;3.27;1.43;;;8.40;99.90;;;;;;5075194;28;20178;-45
2021/12/28 09:22:47;;;;;;;0.90;0.80;;;8.40;99.90;;;;;;5056937;28;20209;-46
2021/12/28 09:25:16;;;;;;;5.70;1.37;;;8.40;99.90;;;;;;5057433;28;20197;-44
2021/12/28 09:27:43;;;;;;;2.67;0.90;;;8.50;99.90;;;;;;5040431;28;20198;-44
2021/12/28 09:30:09;;;;;;;3.80;0.80;;;8.60;99.90;;;;;;5075397;28;20627;-43
2021/12/28 09:32:35;;;;;;;1.23;0.63;;;8.60;99.90;;;;;;5075079;28;20206;-43
2021/12/28 09:35:00;;;;;;;0.60;0.60;;;8.70;99.90;;;;;;5074983;28;20206;-45
2021/12/28 09:37:26;;;;;;;0.50;0.50;;;8.80;99.90;;;;;;5074625;28;20229;-45
2021/12/28 09:39:54;;;;;;;0.50;0.43;;;8.80;99.90;;;;;;5056808;28;20182;-42
2021/12/28 09:42:20;;;;;;;4.77;0.67;;;8.90;99.90;;;;;;5056844;28;20221;-44
2021/12/28 09:44:50;;;;;;;1.60;0.70;;;9.00;99.90;;;;;;5056796;28;20213;-44
2021/12/28 09:47:17;;;;;;;0.90;0.57;;;9.00;99.90;;;;;;5075048;28;20152;-45
2021/12/28 09:49:44;;;;;;;0.50;0.50;;;9.00;99.90;;;;;;5056526;28;20212;-44
2021/12/28 09:52:12;;;;;;;1.73;0.50;;;9.10;99.90;;;;;;5074312;28;20227;-42
2021/12/28 09:54:39;;;;;;;1.30;0.40;;;9.20;99.90;;;;;;5074662;28;20558;-44
2021/12/28 09:57:06;;;;;;;0.60;0.50;;;9.20;99.90;;;;;;5056071;28;20207;-44
2021/12/28 09:59:33;;;;;;;0.57;0.57;;;9.30;99.90;;;;;;5074315;28;20222;-45
2021/12/28 10:02:01;;;;;;;0.50;0.50;;;9.30;99.90;;;;;;5074204;28;20201;-44
2021/12/28 10:04:27;;;;;;;1.03;0.77;;;9.30;99.90;;;;;;5056177;28;20178;-44
2021/12/28 10:07:18;;;;;;;0.53;0.33;;;9.40;99.90;;;;;;5074162;28;20241;-44
2021/12/28 10:09:44;;;;;;;0.83;0.40;;;9.40;99.90;;;;;;5056218;28;20179;-45
2021/12/28 10:12:10;;;;;;;0.60;0.47;;;9.50;99.90;;;;;;5074044;28;20203;-43
2021/12/28 10:14:39;;;;;;;0.43;0.30;;;9.50;99.90;;;;;;5074165;28;20199;-43
2021/12/28 10:17:07;;;;;;;5.20;0.60;;;9.50;99.90;;;;;;5056110;28;20230;-45
2021/12/28 10:19:35;;;;;;;0.63;0.50;;;9.60;99.90;;;;;;5073955;28;20704;-44
2021/12/28 10:22:30;;;;;;;0.80;0.33;;;9.60;99.90;;;;;;5073948;28;20192;-45
2021/12/28 10:25:01;;;;;;;0.80;0.40;;;9.70;99.90;;;;;;5074107;28;20291;-45
2021/12/28 10:27:29;;;;;;;0.40;0.40;;;9.70;99.90;;;;;;5055819;28;20175;-43
2021/12/28 10:30:03;;;;;;;0.63;0.40;;;9.80;99.90;;;;;;5073978;28;20523;-44
2021/12/28 10:32:29;;;;;;;0.80;0.43;;;9.80;99.90;;;;;;5055725;28;20218;-42
2021/12/28 10:35:00;;;;;;;3.00;0.50;;;9.80;99.90;;;;;;5056040;28;20521;-41
2021/12/28 10:37:33;;;;;;;0.40;0.40;;;9.90;99.90;;;;;;5073726;28;20213;-44
2021/12/28 10:40:01;;;;;;;0.47;0.40;;;9.90;99.90;;;;;;5073829;28;20175;-44
2021/12/28 10:42:40;;;;;;;2.40;0.40;;;10.00;99.90;;;;;;5055418;28;20581;-43
2021/12/28 10:45:11;;;;;;;1.33;0.40;;;10.00;99.90;;;;;;5073715;28;20216;-45
2021/12/28 10:47:36;;;;;;;0.33;0.33;;;10.10;99.90;;;;;;5055551;28;20207;-43
2021/12/28 10:50:25;;;;;;;2.00;0.50;;;10.10;99.90;;;;;;5073649;28;20219;-44
2021/12/28 10:53:00;;;;;;;0.30;0.30;;;10.20;99.90;;;;;;5073202;28;20612;-44
2021/12/28 10:55:28;;;;;;;0.50;0.30;;;10.20;99.90;;;;;;5055299;28;20187;-41
2021/12/28 10:57:53;;;;;;;0.60;0.40;;;10.30;99.90;;;;;;5074331;28;20509;-42
2021/12/28 11:00:43;;;;;;;0.47;0.40;;;10.30;99.90;;;;;;5073502;28;20190;-43
2021/12/28 11:03:14;;;;;;;0.73;0.50;;;10.30;99.90;;;;;;5055336;28;20223;-43
2021/12/28 11:05:42;;;;;;;0.90;0.40;;;10.30;99.90;;;;;;5055039;28;20263;-45
2021/12/28 11:08:08;;;;;;;0.40;0.40;;;10.30;99.90;;;;;;5072510;28;20176;-45
2021/12/28 11:10:39;;;;;;;0.70;0.40;;;10.30;99.90;;;;;;5055310;28;20182;-44
2021/12/28 11:13:05;;;;;;;0.50;0.40;;;10.40;99.90;;;;;;5055129;28;20205;-44
2021/12/28 11:15:37;;;;;;;0.30;0.30;;;10.40;99.90;;;;;;5073021;28;20224;-45
2021/12/28 11:18:34;;;;;;;1.90;0.40;;;10.40;99.90;;;;;;5055257;28;20596;-44
2021/12/28 11:21:25;;;;;;;0.40;0.40;;;10.40;99.90;;;;;;5073129;28;20198;-43
2021/12/28 11:23:54;;;;;;;0.63;0.40;;;10.40;99.90;;;;;;5048004;28;20192;-43
2021/12/28 11:26:27;;;;;;;0.30;0.30;;;10.40;99.90;;;;;;5055047;28;20184;-44
2021/12/28 11:29:02;;;;;;;0.40;0.40;;;10.50;99.90;;;;;;5073152;28;20184;-43
2021/12/28 11:31:33;;;;;;;1.93;0.53;;;10.40;99.90;;;;;;5055157;28;20544;-44
2021/12/28 11:34:11;;;;;;;0.70;0.70;;;10.40;99.90;;;;;;5055268;28;20273;-43
2021/12/28 11:36:42;;;;;;;1.17;0.50;;;10.40;99.90;;;;;;5055076;28;20204;-45
2021/12/28 11:39:10;;;;;;;1.47;0.60;;;10.40;99.90;;;;;;5055098;28;20647;-43
2021/12/28 11:41:37;;;;;;;1.07;0.40;;;10.40;99.90;;;;;;5073226;28;20177;-44
2021/12/28 11:44:04;;;;;;;0.50;0.50;;;10.40;99.90;;;;;;5073744;28;20597;-44
2021/12/28 11:46:30;;;;;;;1.73;0.70;;;10.40;99.90;;;;;;5055671;28;20179;-44
2021/12/28 11:48:56;;;;;;;0.60;0.40;;;10.40;99.90;;;;;;5055077;28;20176;-43
2021/12/28 11:51:24;;;;;;;1.17;0.60;;;10.40;99.90;;;;;;5072896;28;20206;-44
2021/12/28 11:53:51;;;;;;;0.40;0.40;;;10.40;99.90;;;;;;5072855;28;20170;-45
2021/12/28 11:56:22;;;;;;;0.50;0.50;;;10.40;99.90;;;;;;5072778;28;20192;-45
2021/12/28 11:58:54;;;;;;;0.30;0.30;;;10.40;99.90;;;;;;5054816;28;20168;-44
2021/12/28 12:01:39;;;;;;;1.70;0.70;;;10.40;99.90;;;;;;5072693;28;20196;-44
2021/12/28 12:04:24;;;;;;;8.83;1.63;;;10.40;99.90;;;;;;5054713;28;20273;-43
2021/12/28 12:07:17;;;;;;;3.03;1.07;;;10.30;99.90;;;;;;5072366;28;20180;-45
2021/12/28 12:09:49;;;;;;;4.97;0.83;;;10.00;99.90;;;;;;5055620;28;20216;-44
2021/12/28 12:12:45;;;;;;;11.87;2.17;;;9.90;99.90;;;;;;5072612;28;20665;-45
2021/12/28 12:15:12;;;;;;;11.73;2.10;;;9.90;99.90;;;;;;5072573;28;20216;-44
2021/12/28 12:17:45;;;;;;;7.60;2.33;;;9.90;99.90;;;;;;5072556;28;20200;-44
2021/12/28 12:20:17;;;;;;;13.27;1.73;;;9.90;99.90;;;;;;5075564;28;20230;-44
2021/12/28 12:22:48;;;;;;;18.37;2.70;;;9.90;99.90;;;;;;5076350;28;20228;-45
2021/12/28 12:25:19;;;;;;;15.03;2.23;;;9.90;99.90;;;;;;5076508;28;20157;-44
2021/12/28 12:27:55;;;;;;;12.60;2.00;;;9.90;99.90;;;;;;5076116;28;20280;-44
2021/12/28 12:30:20;;;;;;;15.63;2.47;;;9.90;99.90;;;;;;5076103;28;20187;-44
2021/12/28 12:32:55;;;;;;;9.47;2.43;;;9.90;99.90;;;;;;5075874;28;20201;-45
2021/12/28 12:35:55;;;;;;;19.30;3.67;;;10.00;99.90;;;;;;5075905;28;20266;-44
2021/12/28 12:38:24;;;;;;;21.60;2.07;;;10.00;99.90;;;;;;5075987;28;20231;-45
2021/12/28 12:40:59;;;;;;;12.27;2.30;;;10.00;99.90;;;;;;5057940;28;20234;-45
2021/12/28 12:43:50;;;;;;;18.77;4.07;;;10.00;99.90;;;;;;5076045;28;20211;-46
2021/12/28 12:46:31;;;;;;;16.27;2.57;;;10.00;99.90;;;;;;5076034;28;20165;-45
2021/12/28 12:48:59;;;;;;;12.27;2.73;;;9.90;99.90;;;;;;5076032;28;20171;-44
2021/12/28 12:51:26;;;;;;;16.13;2.83;;;10.00;99.90;;;;;;5076066;28;20556;-45
2021/12/28 12:54:12;;;;;;;20.27;3.43;;;10.00;99.90;;;;;;5075994;28;20164;-44
2021/12/28 12:56:51;;;;;;;16.77;2.93;;;9.90;99.90;;;;;;5075991;28;20211;-44